createdAt,value
2018-09-05T00:00:01.672Z,0.00
2018-09-05T00:01:01.634Z,0.00
2018-09-05T00:02:01.600Z,0.00
2018-09-05T00:03:01.564Z,0.00
2018-09-05T00:04:01.559Z,0.00
2018-09-05T00:05:01.495Z,0.00
2018-09-05T00:06:01.458Z,0.00
2018-09-05T00:07:01.423Z,0.00
2018-09-05T00:08:01.385Z,0.00
2018-09-05T00:09:01.371Z,0.00
2018-09-05T00:10:01.340Z,0.00
2018-09-05T00:11:01.285Z,0.00
2018-09-05T00:12:01.246Z,0.00
2018-09-05T00:13:01.208Z,0.00
2018-09-05T00:14:01.177Z,0.00
2018-09-05T00:15:01.145Z,0.00
2018-09-05T00:16:01.127Z,0.00
2018-09-05T00:17:01.070Z,0.00
2018-09-05T00:18:01.035Z,0.00
2018-09-05T00:19:00.999Z,0.00
2018-09-05T00:20:00.966Z,0.00
2018-09-05T00:21:00.929Z,0.00
2018-09-05T00:22:00.920Z,0.00
2018-09-05T00:23:00.860Z,0.00
2018-09-05T00:24:00.824Z,0.00
2018-09-05T00:25:00.787Z,0.00
2018-09-05T00:26:00.756Z,0.00
2018-09-05T00:27:00.720Z,0.00
2018-09-05T00:28:00.706Z,0.00
2018-09-05T00:29:00.646Z,0.00
2018-09-05T00:30:00.615Z,0.00
2018-09-05T00:31:00.576Z,0.00
2018-09-05T00:32:00.543Z,0.00
2018-09-05T00:33:00.507Z,0.00
2018-09-05T00:34:00.494Z,0.00
2018-09-05T00:35:00.435Z,0.00
2018-09-05T00:36:00.401Z,0.00
2018-09-05T00:37:00.368Z,0.00
2018-09-05T00:38:00.330Z,0.00
2018-09-05T00:39:00.298Z,0.00
2018-09-05T00:40:00.283Z,0.00
2018-09-05T00:41:00.226Z,0.00
2018-09-05T00:42:00.199Z,0.00
2018-09-05T00:43:00.155Z,0.00
2018-09-05T00:44:00.119Z,0.00
2018-09-05T00:45:00.084Z,0.00
2018-09-05T00:46:00.072Z,0.00
2018-09-05T00:47:00.014Z,0.00
2018-09-05T00:47:59.982Z,0.00
2018-09-05T00:48:59.942Z,0.00
2018-09-05T00:49:59.909Z,0.00
2018-09-05T00:50:59.872Z,0.00
2018-09-05T00:51:59.859Z,0.00
2018-09-05T00:52:59.808Z,0.00
2018-09-05T00:53:59.772Z,0.00
2018-09-05T00:54:59.733Z,0.00
2018-09-05T00:55:59.699Z,0.00
2018-09-05T00:56:59.660Z,0.00
2018-09-05T00:57:59.649Z,0.00
2018-09-05T00:58:59.589Z,0.00
2018-09-05T00:59:59.555Z,0.00
2018-09-05T01:00:59.518Z,0.00
2018-09-05T01:01:59.484Z,0.00
2018-09-05T01:02:59.472Z,0.00
2018-09-05T01:03:59.413Z,0.00
2018-09-05T01:04:59.380Z,0.00
2018-09-05T01:05:59.344Z,0.00
2018-09-05T01:06:59.310Z,0.00
2018-09-05T01:07:59.273Z,0.00
2018-09-05T01:08:59.260Z,0.00
2018-09-05T01:09:59.203Z,0.00
2018-09-05T01:10:59.167Z,0.00
2018-09-05T01:11:59.131Z,0.00
2018-09-05T01:12:59.095Z,0.00
2018-09-05T01:13:59.060Z,0.00
2018-09-05T01:14:59.047Z,0.00
2018-09-05T01:15:58.994Z,0.00
2018-09-05T01:16:58.955Z,0.00
2018-09-05T01:17:58.919Z,0.00
2018-09-05T01:18:58.887Z,0.00
2018-09-05T01:19:58.872Z,0.00
2018-09-05T01:20:58.814Z,0.00
2018-09-05T01:21:58.780Z,0.00
2018-09-05T01:22:58.741Z,0.00
2018-09-05T01:23:58.707Z,0.00
2018-09-05T01:24:58.671Z,0.00
2018-09-05T01:25:58.657Z,0.00
2018-09-05T01:26:58.601Z,0.00
2018-09-05T01:27:58.570Z,0.00
2018-09-05T01:28:58.531Z,0.00
2018-09-05T01:29:58.495Z,0.00
2018-09-05T01:30:58.461Z,0.00
2018-09-05T01:31:58.453Z,0.00
2018-09-05T01:32:58.389Z,0.00
2018-09-05T01:33:58.358Z,0.00
2018-09-05T01:34:58.319Z,0.00
2018-09-05T01:35:58.283Z,0.00
2018-09-05T01:36:58.247Z,0.00
2018-09-05T01:37:58.236Z,0.00
2018-09-05T01:38:58.178Z,0.00
2018-09-05T01:39:58.142Z,0.00
2018-09-05T01:40:58.105Z,0.00
2018-09-05T01:41:58.070Z,0.00
2018-09-05T01:42:58.036Z,0.00
2018-09-05T01:43:58.021Z,0.00
2018-09-05T01:44:57.964Z,0.00
2018-09-05T01:45:57.930Z,0.00
2018-09-05T01:46:57.893Z,0.00
2018-09-05T01:47:57.861Z,0.00
2018-09-05T01:48:57.830Z,0.00
2018-09-05T01:49:57.812Z,0.00
2018-09-05T01:50:57.753Z,0.00
2018-09-05T01:51:57.717Z,0.00
2018-09-05T01:52:57.680Z,0.00
2018-09-05T01:53:57.654Z,0.00
2018-09-05T01:54:57.610Z,0.00
2018-09-05T01:55:57.598Z,0.00
2018-09-05T01:56:57.539Z,0.00
2018-09-05T01:57:57.504Z,0.00
2018-09-05T01:58:57.469Z,0.00
2018-09-05T01:59:57.436Z,0.00
2018-09-05T02:00:57.402Z,0.00
2018-09-05T02:01:57.393Z,0.00
2018-09-05T02:02:57.328Z,0.00
2018-09-05T02:03:57.293Z,0.00
2018-09-05T02:04:57.254Z,0.00
2018-09-05T02:05:57.219Z,0.00
2018-09-05T02:06:57.185Z,0.00
2018-09-05T02:07:57.173Z,0.00
2018-09-05T02:08:57.118Z,0.00
2018-09-05T02:09:57.083Z,0.00
2018-09-05T02:10:57.053Z,0.00
2018-09-05T02:11:57.009Z,0.00
2018-09-05T02:12:56.971Z,0.00
2018-09-05T02:13:56.957Z,0.00
2018-09-05T02:14:56.901Z,0.00
2018-09-05T02:15:56.869Z,0.00
2018-09-05T02:16:56.834Z,0.00
2018-09-05T02:17:56.799Z,0.00
2018-09-05T02:18:56.760Z,0.00
2018-09-05T02:19:56.750Z,0.00
2018-09-05T02:20:56.687Z,0.00
2018-09-05T02:21:56.652Z,0.00
2018-09-05T02:22:56.616Z,0.00
2018-09-05T02:23:56.583Z,0.00
2018-09-05T02:24:56.547Z,0.00
2018-09-05T02:25:56.547Z,0.00
2018-09-05T02:26:56.481Z,0.00
2018-09-05T02:27:56.439Z,0.00
2018-09-05T02:28:56.403Z,0.00
2018-09-05T02:29:56.368Z,0.00
2018-09-05T02:30:56.332Z,0.00
2018-09-05T02:31:56.321Z,0.00
2018-09-05T02:32:56.272Z,0.00
2018-09-05T02:33:56.227Z,0.00
2018-09-05T02:34:56.191Z,0.00
2018-09-05T02:35:56.157Z,0.00
2018-09-05T02:36:56.122Z,0.00
2018-09-05T02:37:56.108Z,0.00
2018-09-05T02:38:56.054Z,0.00
2018-09-05T02:39:56.016Z,0.00
2018-09-05T02:40:56.015Z,0.00
2018-09-05T02:41:55.942Z,0.00
2018-09-05T02:42:55.908Z,0.00
2018-09-05T02:43:55.894Z,0.00
2018-09-05T02:44:55.839Z,0.00
2018-09-05T02:45:55.804Z,0.00
2018-09-05T02:46:55.770Z,0.00
2018-09-05T02:47:55.730Z,0.00
2018-09-05T02:48:55.697Z,0.00
2018-09-05T02:49:55.685Z,0.00
2018-09-05T02:50:55.623Z,0.00
2018-09-05T02:51:55.589Z,0.00
2018-09-05T02:52:55.555Z,0.00
2018-09-05T02:53:55.518Z,0.00
2018-09-05T02:54:55.481Z,0.00
2018-09-05T02:55:55.472Z,0.00
2018-09-05T02:56:55.411Z,0.00
2018-09-05T02:57:55.377Z,0.00
2018-09-05T02:58:55.339Z,0.00
2018-09-05T02:59:55.304Z,0.00
2018-09-05T03:00:55.270Z,0.00
2018-09-05T03:01:55.258Z,0.00
2018-09-05T03:02:55.203Z,0.00
2018-09-05T03:03:55.167Z,0.00
2018-09-05T03:04:55.126Z,0.00
2018-09-05T03:05:55.090Z,0.00
2018-09-05T03:06:55.055Z,0.00
2018-09-05T03:07:55.044Z,0.00
2018-09-05T03:08:54.983Z,0.00
2018-09-05T03:09:54.955Z,0.00
2018-09-05T03:10:54.913Z,0.00
2018-09-05T03:11:54.877Z,0.00
2018-09-05T03:12:54.866Z,0.00
2018-09-05T03:13:54.807Z,0.00
2018-09-05T03:14:54.774Z,0.00
2018-09-05T03:15:54.738Z,0.00
2018-09-05T03:16:54.700Z,0.00
2018-09-05T03:17:54.664Z,0.00
2018-09-05T03:18:54.653Z,0.00
2018-09-05T03:19:54.592Z,0.00
2018-09-05T03:20:54.556Z,0.00
2018-09-05T03:21:54.522Z,0.00
2018-09-05T03:22:54.487Z,0.00
2018-09-05T03:23:54.451Z,0.00
2018-09-05T03:24:54.440Z,0.00
2018-09-05T03:25:54.379Z,0.00
2018-09-05T03:26:54.344Z,0.00
2018-09-05T03:27:54.309Z,0.00
2018-09-05T03:28:54.273Z,0.00
2018-09-05T03:29:54.260Z,0.00
2018-09-05T03:30:54.224Z,0.00
2018-09-05T03:31:54.173Z,0.00
2018-09-05T03:32:54.204Z,0.00
2018-09-05T03:33:54.096Z,0.00
2018-09-05T03:34:54.062Z,0.00
2018-09-05T03:35:54.025Z,0.00
2018-09-05T03:36:54.014Z,0.00
2018-09-05T03:37:53.953Z,0.00
2018-09-05T03:38:53.919Z,0.00
2018-09-05T03:39:53.881Z,0.00
2018-09-05T03:40:53.844Z,0.00
2018-09-05T03:41:53.809Z,0.00
2018-09-05T03:42:53.801Z,0.00
2018-09-05T03:43:53.742Z,0.00
2018-09-05T03:44:53.702Z,0.00
2018-09-05T03:45:53.678Z,0.00
2018-09-05T03:46:53.634Z,0.00
2018-09-05T03:47:53.598Z,0.00
2018-09-05T03:48:53.585Z,0.00
2018-09-05T03:49:53.561Z,0.00
2018-09-05T03:50:53.489Z,0.00
2018-09-05T03:51:53.455Z,0.00
2018-09-05T03:52:53.418Z,0.00
2018-09-05T03:53:53.382Z,0.00
2018-09-05T03:54:53.369Z,0.00
2018-09-05T03:55:53.329Z,0.00
2018-09-05T03:56:53.277Z,0.00
2018-09-05T03:57:53.240Z,0.00
2018-09-05T03:58:53.207Z,0.00
2018-09-05T03:59:53.170Z,0.00
2018-09-05T04:00:53.158Z,0.00
2018-09-05T04:01:53.100Z,0.00
2018-09-05T04:02:53.085Z,0.00
2018-09-05T04:03:53.030Z,0.00
2018-09-05T04:04:52.991Z,0.00
2018-09-05T04:05:52.956Z,0.00
2018-09-05T04:06:52.947Z,0.00
2018-09-05T04:07:52.887Z,0.00
2018-09-05T04:08:52.848Z,0.00
2018-09-05T04:09:52.812Z,0.00
2018-09-05T04:10:52.779Z,0.00
2018-09-05T04:11:52.742Z,0.00
2018-09-05T04:12:52.744Z,0.00
2018-09-05T04:13:52.671Z,0.00
2018-09-05T04:14:52.636Z,0.00
2018-09-05T04:15:52.602Z,0.00
2018-09-05T04:16:52.570Z,0.00
2018-09-05T04:17:52.529Z,0.00
2018-09-05T04:18:52.520Z,0.00
2018-09-05T04:19:52.458Z,0.00
2018-09-05T04:20:52.422Z,0.00
2018-09-05T04:21:52.438Z,0.00
2018-09-05T04:22:52.355Z,0.00
2018-09-05T04:23:52.316Z,0.00
2018-09-05T04:24:52.302Z,0.00
2018-09-05T04:25:52.242Z,0.00
2018-09-05T04:26:52.209Z,0.00
2018-09-05T04:27:52.171Z,0.00
2018-09-05T04:28:52.136Z,0.00
2018-09-05T04:29:52.140Z,0.00
2018-09-05T04:30:52.089Z,0.00
2018-09-05T04:31:52.033Z,0.00
2018-09-05T04:32:51.994Z,0.00
2018-09-05T04:33:51.958Z,0.00
2018-09-05T04:34:51.923Z,4.00
2018-09-05T04:35:51.887Z,4.00
2018-09-05T04:36:51.880Z,4.00
2018-09-05T04:37:51.821Z,4.00
2018-09-05T04:38:51.780Z,8.00
2018-09-05T04:39:51.743Z,4.00
2018-09-05T04:40:51.708Z,8.00
2018-09-05T04:41:51.674Z,8.00
2018-09-05T04:42:51.656Z,8.00
2018-09-05T04:43:51.602Z,12.00
2018-09-05T04:44:51.564Z,12.00
2018-09-05T04:45:51.530Z,12.00
2018-09-05T04:46:51.497Z,16.00
2018-09-05T04:47:51.461Z,16.00
2018-09-05T04:48:51.444Z,20.00
2018-09-05T04:49:51.388Z,20.00
2018-09-05T04:50:51.352Z,28.00
2018-09-05T04:51:51.314Z,32.00
2018-09-05T04:52:51.281Z,32.00
2018-09-05T04:53:51.244Z,36.00
2018-09-05T04:54:51.238Z,40.00
2018-09-05T04:55:51.173Z,44.00
2018-09-05T04:56:51.137Z,52.00
2018-09-05T04:57:51.100Z,52.00
2018-09-05T04:58:51.066Z,56.00
2018-09-05T04:59:51.028Z,60.00
2018-09-05T05:00:51.014Z,68.00
2018-09-05T05:01:50.955Z,72.00
2018-09-05T05:02:50.920Z,80.00
2018-09-05T05:03:50.890Z,84.00
2018-09-05T05:04:50.852Z,88.00
2018-09-05T05:05:50.855Z,92.00
2018-09-05T05:06:50.795Z,100.00
2018-09-05T05:07:50.737Z,104.00
2018-09-05T05:08:50.705Z,112.00
2018-09-05T05:09:50.670Z,116.00
2018-09-05T05:10:50.639Z,124.00
2018-09-05T05:11:50.593Z,128.00
2018-09-05T05:12:50.579Z,136.00
2018-09-05T05:13:51.323Z,136.00
2018-09-05T05:14:50.482Z,144.00
2018-09-05T05:15:50.447Z,152.00
2018-09-05T05:16:50.420Z,156.00
2018-09-05T05:17:50.372Z,164.00
2018-09-05T05:18:50.357Z,164.00
2018-09-05T05:19:50.302Z,172.00
2018-09-05T05:20:50.262Z,176.00
2018-09-05T05:21:50.224Z,184.00
2018-09-05T05:22:50.189Z,188.00
2018-09-05T05:23:50.152Z,196.00
2018-09-05T05:24:50.139Z,200.00
2018-09-05T05:25:50.078Z,204.00
2018-09-05T05:26:50.042Z,208.00
2018-09-05T05:27:50.004Z,216.00
2018-09-05T05:28:49.966Z,220.00
2018-09-05T05:29:49.932Z,224.00
2018-09-05T05:30:49.929Z,228.00
2018-09-05T05:31:49.862Z,236.00
2018-09-05T05:32:49.832Z,236.00
2018-09-05T05:33:49.784Z,244.00
2018-09-05T05:34:49.744Z,244.00
2018-09-05T05:35:49.707Z,252.00
2018-09-05T05:36:49.688Z,256.00
2018-09-05T05:37:49.632Z,264.00
2018-09-05T05:38:49.594Z,264.00
2018-09-05T05:39:49.556Z,272.00
2018-09-05T05:40:49.519Z,276.00
2018-09-05T05:41:49.481Z,276.00
2018-09-05T05:42:49.471Z,280.00
2018-09-05T05:43:49.417Z,284.00
2018-09-05T05:44:49.368Z,288.00
2018-09-05T05:45:49.332Z,292.00
2018-09-05T05:46:49.375Z,296.00
2018-09-05T05:47:49.256Z,300.00
2018-09-05T05:48:49.250Z,304.00
2018-09-05T05:49:49.180Z,308.00
2018-09-05T05:50:49.145Z,312.00
2018-09-05T05:51:49.106Z,316.00
2018-09-05T05:52:49.074Z,320.00
2018-09-05T05:53:49.030Z,324.00
2018-09-05T05:54:49.018Z,328.00
2018-09-05T05:55:48.956Z,332.00
2018-09-05T05:56:48.915Z,336.00
2018-09-05T05:57:48.880Z,336.00
2018-09-05T05:58:48.845Z,340.00
2018-09-05T05:59:48.804Z,340.00
2018-09-05T06:00:48.829Z,344.00
2018-09-05T06:01:48.727Z,348.00
2018-09-05T06:02:48.692Z,348.00
2018-09-05T06:03:48.655Z,352.00
2018-09-05T06:04:48.615Z,352.00
2018-09-05T06:05:48.576Z,356.00
2018-09-05T06:06:48.563Z,360.00
2018-09-05T06:07:48.507Z,364.00
2018-09-05T06:08:48.465Z,364.00
2018-09-05T06:09:48.427Z,372.00
2018-09-05T06:10:48.390Z,372.00
2018-09-05T06:11:48.370Z,372.00
2018-09-05T06:12:48.338Z,376.00
2018-09-05T06:13:48.279Z,376.00
2018-09-05T06:14:48.244Z,384.00
2018-09-05T06:15:48.207Z,384.00
2018-09-05T06:16:48.167Z,388.00
2018-09-05T06:17:48.145Z,392.00
2018-09-05T06:18:48.117Z,392.00
2018-09-05T06:19:48.055Z,396.00
2018-09-05T06:20:48.016Z,400.00
2018-09-05T06:21:47.982Z,400.00
2018-09-05T06:22:47.947Z,400.00
2018-09-05T06:23:47.908Z,404.00
2018-09-05T06:24:47.894Z,408.00
2018-09-05T06:25:47.834Z,412.00
2018-09-05T06:26:47.797Z,416.00
2018-09-05T06:27:47.810Z,416.00
2018-09-05T06:28:47.721Z,420.00
2018-09-05T06:29:47.714Z,424.00
2018-09-05T06:30:47.694Z,428.00
2018-09-05T06:31:47.610Z,432.00
2018-09-05T06:32:47.573Z,432.00
2018-09-05T06:33:47.537Z,436.00
2018-09-05T06:34:47.527Z,436.00
2018-09-05T06:35:47.464Z,444.00
2018-09-05T06:36:47.428Z,448.00
2018-09-05T06:37:47.391Z,452.00
2018-09-05T06:38:47.356Z,452.00
2018-09-05T06:39:47.388Z,456.00
2018-09-05T06:40:47.304Z,460.00
2018-09-05T06:41:47.244Z,464.00
2018-09-05T06:42:47.208Z,468.00
2018-09-05T06:43:47.172Z,468.00
2018-09-05T06:44:47.137Z,472.00
2018-09-05T06:45:47.121Z,476.00
2018-09-05T06:46:47.062Z,480.00
2018-09-05T06:47:47.025Z,476.00
2018-09-05T06:48:46.988Z,480.00
2018-09-05T06:49:46.955Z,480.00
2018-09-05T06:50:46.918Z,484.00
2018-09-05T06:51:46.903Z,488.00
2018-09-05T06:52:46.843Z,488.00
2018-09-05T06:53:46.806Z,492.00
2018-09-05T06:54:46.770Z,492.00
2018-09-05T06:55:46.735Z,496.00
2018-09-05T06:56:46.697Z,496.00
2018-09-05T06:57:46.688Z,500.00
2018-09-05T06:58:46.629Z,500.00
2018-09-05T06:59:46.591Z,504.00
2018-09-05T07:00:46.553Z,504.00
2018-09-05T07:01:46.527Z,508.00
2018-09-05T07:02:46.481Z,508.00
2018-09-05T07:03:46.495Z,508.00
2018-09-05T07:04:46.406Z,508.00
2018-09-05T07:05:46.374Z,512.00
2018-09-05T07:06:46.364Z,516.00
2018-09-05T07:07:46.300Z,520.00
2018-09-05T07:08:46.263Z,520.00
2018-09-05T07:09:46.249Z,520.00
2018-09-05T07:10:46.192Z,524.00
2018-09-05T07:11:46.160Z,524.00
2018-09-05T07:12:46.130Z,528.00
2018-09-05T07:13:46.085Z,528.00
2018-09-05T07:14:46.044Z,532.00
2018-09-05T07:15:46.035Z,532.00
2018-09-05T07:16:45.974Z,536.00
2018-09-05T07:17:45.938Z,532.00
2018-09-05T07:18:45.912Z,536.00
2018-09-05T07:19:45.866Z,540.00
2018-09-05T07:20:45.829Z,540.00
2018-09-05T07:21:45.817Z,540.00
2018-09-05T07:22:45.758Z,544.00
2018-09-05T07:23:45.735Z,548.00
2018-09-05T07:24:45.682Z,548.00
2018-09-05T07:25:45.651Z,548.00
2018-09-05T07:26:45.612Z,552.00
2018-09-05T07:27:45.604Z,552.00
2018-09-05T07:28:45.543Z,552.00
2018-09-05T07:29:45.506Z,552.00
2018-09-05T07:30:45.482Z,556.00
2018-09-05T07:31:45.432Z,556.00
2018-09-05T07:32:45.396Z,556.00
2018-09-05T07:33:45.385Z,556.00
2018-09-05T07:34:45.333Z,560.00
2018-09-05T07:35:45.321Z,564.00
2018-09-05T07:36:45.253Z,560.00
2018-09-05T07:37:45.216Z,560.00
2018-09-05T07:38:45.181Z,564.00
2018-09-05T07:39:45.170Z,564.00
2018-09-05T07:40:45.116Z,568.00
2018-09-05T07:41:45.071Z,568.00
2018-09-05T07:42:45.039Z,568.00
2018-09-05T07:43:45.063Z,564.00
2018-09-05T07:44:44.985Z,568.00
2018-09-05T07:45:44.928Z,572.00
2018-09-05T07:46:44.895Z,572.00
2018-09-05T07:47:44.858Z,568.00
2018-09-05T07:48:44.823Z,576.00
2018-09-05T07:49:44.785Z,576.00
2018-09-05T07:50:44.949Z,576.00
2018-09-05T07:51:44.712Z,576.00
2018-09-05T07:52:44.679Z,576.00
2018-09-05T07:53:44.641Z,576.00
2018-09-05T07:54:44.606Z,576.00
2018-09-05T07:55:44.571Z,580.00
2018-09-05T07:56:44.556Z,580.00
2018-09-05T07:57:44.498Z,580.00
2018-09-05T07:58:44.463Z,580.00
2018-09-05T07:59:44.428Z,584.00
2018-09-05T08:00:44.391Z,584.00
2018-09-05T08:01:44.355Z,584.00
2018-09-05T08:02:44.375Z,588.00
2018-09-05T08:03:44.285Z,588.00
2018-09-05T08:04:44.250Z,592.00
2018-09-05T08:05:44.211Z,588.00
2018-09-05T08:06:44.174Z,592.00
2018-09-05T08:07:44.140Z,592.00
2018-09-05T08:08:44.128Z,596.00
2018-09-05T08:09:44.067Z,592.00
2018-09-05T08:10:44.031Z,596.00
2018-09-05T08:11:44.061Z,596.00
2018-09-05T08:12:43.971Z,600.00
2018-09-05T08:13:43.923Z,600.00
2018-09-05T08:14:43.910Z,600.00
2018-09-05T08:15:43.852Z,604.00
2018-09-05T08:16:43.817Z,600.00
2018-09-05T08:17:43.779Z,600.00
2018-09-05T08:18:43.762Z,604.00
2018-09-05T08:19:43.712Z,604.00
2018-09-05T08:20:43.696Z,608.00
2018-09-05T08:21:43.640Z,612.00
2018-09-05T08:22:43.601Z,608.00
2018-09-05T08:23:43.566Z,612.00
2018-09-05T08:24:43.530Z,612.00
2018-09-05T08:25:43.494Z,612.00
2018-09-05T08:26:43.485Z,616.00
2018-09-05T08:27:43.422Z,616.00
2018-09-05T08:28:43.440Z,616.00
2018-09-05T08:29:43.362Z,616.00
2018-09-05T08:30:43.314Z,616.00
2018-09-05T08:31:43.276Z,620.00
2018-09-05T08:32:43.268Z,620.00
2018-09-05T08:33:43.207Z,620.00
2018-09-05T08:34:43.304Z,624.00
2018-09-05T08:35:43.310Z,624.00
2018-09-05T08:36:43.193Z,628.00
2018-09-05T08:37:43.223Z,628.00
2018-09-05T08:38:43.098Z,628.00
2018-09-05T08:39:42.994Z,628.00
2018-09-05T08:40:42.971Z,632.00
2018-09-05T08:41:42.999Z,632.00
2018-09-05T08:42:42.924Z,632.00
2018-09-05T08:43:43.005Z,636.00
2018-09-05T08:44:42.921Z,636.00
2018-09-05T08:45:42.991Z,640.00
2018-09-05T08:46:42.749Z,636.00
2018-09-05T08:47:42.800Z,640.00
2018-09-05T08:48:42.761Z,636.00
2018-09-05T08:49:42.635Z,640.00
2018-09-05T08:50:42.622Z,640.00
2018-09-05T08:51:42.571Z,644.00
2018-09-05T08:52:42.605Z,640.00
2018-09-05T08:53:42.524Z,640.00
2018-09-05T08:54:42.458Z,644.00
2018-09-05T08:55:42.442Z,644.00
2018-09-05T08:56:42.410Z,644.00
2018-09-05T08:57:42.361Z,652.00
2018-09-05T08:58:42.355Z,648.00
2018-09-05T08:59:42.280Z,648.00
2018-09-05T09:00:42.243Z,648.00
2018-09-05T09:01:42.212Z,652.00
2018-09-05T09:02:42.195Z,652.00
2018-09-05T09:03:42.137Z,652.00
2018-09-05T09:04:42.181Z,656.00
2018-09-05T09:05:42.065Z,656.00
2018-09-05T09:06:42.030Z,660.00
2018-09-05T09:07:41.998Z,660.00
2018-09-05T09:08:41.981Z,660.00
2018-09-05T09:09:41.925Z,660.00
2018-09-05T09:10:41.887Z,668.00
2018-09-05T09:11:41.894Z,664.00
2018-09-05T09:12:41.817Z,664.00
2018-09-05T09:13:41.804Z,668.00
2018-09-05T09:14:41.744Z,668.00
2018-09-05T09:15:41.708Z,672.00
2018-09-05T09:16:41.673Z,672.00
2018-09-05T09:17:41.637Z,672.00
2018-09-05T09:18:41.628Z,676.00
2018-09-05T09:19:41.567Z,676.00
2018-09-05T09:20:41.531Z,676.00
2018-09-05T09:21:41.495Z,676.00
2018-09-05T09:22:41.458Z,680.00
2018-09-05T09:23:41.427Z,684.00
2018-09-05T09:24:41.414Z,684.00
2018-09-05T09:25:41.354Z,684.00
2018-09-05T09:26:41.318Z,688.00
2018-09-05T09:27:41.351Z,692.00
2018-09-05T09:28:41.245Z,692.00
2018-09-05T09:29:41.210Z,692.00
2018-09-05T09:30:41.198Z,692.00
2018-09-05T09:31:41.145Z,696.00
2018-09-05T09:32:41.106Z,696.00
2018-09-05T09:33:41.069Z,700.00
2018-09-05T09:34:41.034Z,700.00
2018-09-05T09:35:41.028Z,700.00
2018-09-05T09:36:40.961Z,700.00
2018-09-05T09:37:40.926Z,700.00
2018-09-05T09:38:40.893Z,704.00
2018-09-05T09:39:40.864Z,708.00
2018-09-05T09:40:40.843Z,708.00
2018-09-05T09:41:40.783Z,712.00
2018-09-05T09:42:40.748Z,712.00
2018-09-05T09:43:40.712Z,716.00
2018-09-05T09:44:40.676Z,716.00
2018-09-05T09:45:40.640Z,720.00
2018-09-05T09:46:40.636Z,720.00
2018-09-05T09:47:40.569Z,720.00
2018-09-05T09:48:40.533Z,724.00
2018-09-05T09:49:40.505Z,724.00
2018-09-05T09:50:40.463Z,728.00
2018-09-05T09:51:40.459Z,732.00
2018-09-05T09:52:40.392Z,732.00
2018-09-05T09:53:40.358Z,736.00
2018-09-05T09:54:40.322Z,736.00
2018-09-05T09:55:40.286Z,740.00
2018-09-05T09:56:40.330Z,744.00
2018-09-05T09:57:40.238Z,744.00
2018-09-05T09:58:40.180Z,740.00
2018-09-05T09:59:40.143Z,744.00
2018-09-05T10:00:40.109Z,744.00
2018-09-05T10:01:40.073Z,748.00
2018-09-05T10:02:40.064Z,748.00
2018-09-05T10:03:40.039Z,752.00
2018-09-05T10:04:39.968Z,756.00
2018-09-05T10:05:39.929Z,756.00
2018-09-05T10:06:39.895Z,756.00
2018-09-05T10:07:39.884Z,756.00
2018-09-05T10:08:39.826Z,760.00
2018-09-05T10:09:39.823Z,760.00
2018-09-05T10:10:39.790Z,764.00
2018-09-05T10:11:39.717Z,768.00
2018-09-05T10:12:39.712Z,768.00
2018-09-05T10:13:39.647Z,772.00
2018-09-05T10:14:39.613Z,772.00
2018-09-05T10:15:39.575Z,776.00
2018-09-05T10:16:39.540Z,776.00
2018-09-05T10:17:39.528Z,780.00
2018-09-05T10:18:39.470Z,780.00
2018-09-05T10:19:39.434Z,780.00
2018-09-05T10:20:39.403Z,784.00
2018-09-05T10:21:39.369Z,784.00
2018-09-05T10:22:39.413Z,784.00
2018-09-05T10:23:39.309Z,788.00
2018-09-05T10:24:39.258Z,792.00
2018-09-05T10:25:39.220Z,788.00
2018-09-05T10:26:39.187Z,792.00
2018-09-05T10:27:39.149Z,796.00
2018-09-05T10:28:39.136Z,796.00
2018-09-05T10:29:39.081Z,796.00
2018-09-05T10:30:39.043Z,800.00
2018-09-05T10:31:39.047Z,804.00
2018-09-05T10:32:38.969Z,808.00
2018-09-05T10:33:38.960Z,808.00
2018-09-05T10:34:38.902Z,812.00
2018-09-05T10:35:38.870Z,816.00
2018-09-05T10:36:38.830Z,816.00
2018-09-05T10:37:38.799Z,812.00
2018-09-05T10:38:38.789Z,816.00
2018-09-05T10:39:38.725Z,820.00
2018-09-05T10:40:38.690Z,820.00
2018-09-05T10:41:38.656Z,820.00
2018-09-05T10:42:38.618Z,824.00
2018-09-05T10:43:38.608Z,824.00
2018-09-05T10:44:38.549Z,824.00
2018-09-05T10:45:38.512Z,828.00
2018-09-05T10:46:38.477Z,828.00
2018-09-05T10:47:38.441Z,828.00
2018-09-05T10:48:38.406Z,828.00
2018-09-05T10:49:38.403Z,832.00
2018-09-05T10:50:38.335Z,836.00
2018-09-05T10:51:38.314Z,840.00
2018-09-05T10:52:38.265Z,840.00
2018-09-05T10:53:38.231Z,844.00
2018-09-05T10:54:38.197Z,844.00
2018-09-05T10:55:38.186Z,844.00
2018-09-05T10:56:38.122Z,848.00
2018-09-05T10:57:38.086Z,848.00
2018-09-05T10:58:38.054Z,848.00
2018-09-05T10:59:38.016Z,852.00
2018-09-05T11:00:38.004Z,852.00
2018-09-05T11:01:37.944Z,856.00
2018-09-05T11:02:37.909Z,860.00
2018-09-05T11:03:37.875Z,860.00
2018-09-05T11:04:37.839Z,864.00
2018-09-05T11:05:37.826Z,864.00
2018-09-05T11:06:37.770Z,864.00
2018-09-05T11:07:37.733Z,864.00
2018-09-05T11:08:37.696Z,868.00
2018-09-05T11:09:37.662Z,872.00
2018-09-05T11:10:37.654Z,872.00
2018-09-05T11:11:37.592Z,876.00
2018-09-05T11:12:37.555Z,876.00
2018-09-05T11:13:37.520Z,880.00
2018-09-05T11:14:37.485Z,880.00
2018-09-05T11:15:37.474Z,880.00
2018-09-05T11:16:37.417Z,884.00
2018-09-05T11:17:37.378Z,884.00
2018-09-05T11:18:37.346Z,888.00
2018-09-05T11:19:37.311Z,892.00
2018-09-05T11:20:37.329Z,896.00
2018-09-05T11:21:37.255Z,896.00
2018-09-05T11:22:37.201Z,896.00
2018-09-05T11:23:37.173Z,900.00
2018-09-05T11:24:37.131Z,904.00
2018-09-05T11:25:37.095Z,904.00
2018-09-05T11:26:37.085Z,904.00
2018-09-05T11:27:37.031Z,908.00
2018-09-05T11:28:36.991Z,912.00
2018-09-05T11:29:36.954Z,916.00
2018-09-05T11:30:36.918Z,916.00
2018-09-05T11:31:36.912Z,920.00
2018-09-05T11:32:36.851Z,920.00
2018-09-05T11:33:36.815Z,924.00
2018-09-05T11:34:36.779Z,924.00
2018-09-05T11:35:36.742Z,928.00
2018-09-05T11:36:36.705Z,928.00
2018-09-05T11:37:36.697Z,928.00
2018-09-05T11:38:36.636Z,928.00
2018-09-05T11:39:36.600Z,928.00
2018-09-05T11:40:36.565Z,932.00
2018-09-05T11:41:36.531Z,936.00
2018-09-05T11:42:36.518Z,932.00
2018-09-05T11:43:36.462Z,936.00
2018-09-05T11:44:36.423Z,940.00
2018-09-05T11:45:36.390Z,944.00
2018-09-05T11:46:36.353Z,944.00
2018-09-05T11:47:36.339Z,944.00
2018-09-05T11:48:36.313Z,948.00
2018-09-05T11:49:36.247Z,948.00
2018-09-05T11:50:36.212Z,948.00
2018-09-05T11:51:36.176Z,948.00
2018-09-05T11:52:36.141Z,948.00
2018-09-05T11:53:36.132Z,952.00
2018-09-05T11:54:36.072Z,952.00
2018-09-05T11:55:36.041Z,952.00
2018-09-05T11:56:35.999Z,952.00
2018-09-05T11:57:35.968Z,952.00
2018-09-05T11:58:35.965Z,952.00
2018-09-05T11:59:35.895Z,956.00
2018-09-05T12:00:35.862Z,960.00
2018-09-05T12:01:35.825Z,956.00
2018-09-05T12:02:35.790Z,960.00
2018-09-05T12:03:35.754Z,960.00
2018-09-05T12:04:35.741Z,964.00
2018-09-05T12:05:35.683Z,968.00
2018-09-05T12:06:35.648Z,964.00
2018-09-05T12:07:35.613Z,964.00
2018-09-05T12:08:35.586Z,964.00
2018-09-05T12:09:35.564Z,968.00
2018-09-05T12:10:35.506Z,968.00
2018-09-05T12:11:35.527Z,972.00
2018-09-05T12:12:35.440Z,976.00
2018-09-05T12:13:35.408Z,980.00
2018-09-05T12:14:35.391Z,980.00
2018-09-05T12:15:35.353Z,984.00
2018-09-05T12:16:35.296Z,992.00
2018-09-05T12:17:35.260Z,992.00
2018-09-05T12:18:35.244Z,996.00
2018-09-05T12:19:35.189Z,1000.00
2018-09-05T12:20:35.178Z,1192.00
2018-09-05T12:21:35.119Z,1200.00
2018-09-05T12:22:35.086Z,1212.00
2018-09-05T12:23:35.048Z,1216.00
2018-09-05T12:24:35.014Z,1224.00
2018-09-05T12:25:34.978Z,1232.00
2018-09-05T12:26:34.981Z,1236.00
2018-09-05T12:27:34.910Z,1244.00
2018-09-05T12:28:34.877Z,1252.00
2018-09-05T12:29:34.836Z,1264.00
2018-09-05T12:30:34.806Z,1268.00
2018-09-05T12:31:34.767Z,1276.00
2018-09-05T12:32:34.758Z,1284.00
2018-09-05T12:33:34.695Z,1296.00
2018-09-05T12:34:34.672Z,1320.00
2018-09-05T12:35:34.626Z,1344.00
2018-09-05T12:36:34.590Z,1360.00
2018-09-05T12:37:34.557Z,1372.00
2018-09-05T12:38:34.541Z,1372.00
2018-09-05T12:39:34.486Z,1384.00
2018-09-05T12:40:34.448Z,1404.00
2018-09-05T12:41:34.415Z,1440.00
2018-09-05T12:42:34.379Z,1472.00
2018-09-05T12:43:34.344Z,1512.00
2018-09-05T12:44:34.394Z,1548.00
2018-09-05T12:45:34.282Z,1580.00